Cottonwood, Minnesota
Current Conditions -  °F | °C
As of 5:32 PM on Tuesday 25 Nov 2014 (Local Time) from KGDB Reporting Station
Broken Clouds Broken Clouds  
Wind Chill: 22°   Ceiling: 4200
Heat Index: 28°   Visibility: 10mi
Dew Point: 22°   Wind: 6mph
Humidity: 76%   Direction: 100°E
Pressure: 29.94"   Gusts: NA
Location:  44.61°N, 95.67°W
Report Text: KGDB 252332Z AUTO 10005KT 10SM BKN042 M02/M06 A2994 RMK AO2 T10201058
Loading
Personal Weather Stations






























Interactive Weather Map New forecast layout! Learn more

10-Day Weather Forecast

Advertisements
Track Severe Weather on mobile